Time;durP1;ratioP1;P1;durP2;ratioP2;P2;SDS_P1;SDS_P2;PMS_P1;PMS_P2;Temp;Humidity;BMP_temperature;BMP_pressure;BME280_temperature;BME280_humidity;BME280_pressure;Samples;Min_cycle;Max_cycle;Signal;HPM_P1;HPM_P2
2022/04/23 00:00:56;;;;;;;23.10;14.60;;;;;;;5.84;83.99;99323.25;4189294;28;20272;-68
2022/04/23 00:03:22;;;;;;;26.03;14.90;;;;;;;5.90;83.96;99320.06;4193149;28;20997;-68
2022/04/23 00:05:49;;;;;;;25.83;15.37;;;;;;;5.82;84.25;99319.09;4194408;28;20281;-68
2022/04/23 00:08:15;;;;;;;23.00;14.03;;;;;;;5.85;84.61;99321.44;4193964;28;20865;-67
2022/04/23 00:10:42;;;;;;;26.50;14.53;;;;;;;5.97;84.12;99306.28;4190470;28;20245;-68
2022/04/23 00:13:09;;;;;;;24.93;14.57;;;;;;;6.05;83.04;99309.88;4195209;28;20320;-68
2022/04/23 00:15:39;;;;;;;26.50;15.03;;;;;;;6.07;82.65;99312.41;4188693;28;21040;-67
2022/04/23 00:18:09;;;;;;;24.50;13.97;;;;;;;5.95;82.70;99302.97;4196667;28;23367;-69
2022/04/23 00:20:37;;;;;;;22.73;13.97;;;;;;;6.05;82.45;99304.59;4200647;28;20249;-68
2022/04/23 00:23:04;;;;;;;24.53;14.10;;;;;;;6.08;82.98;99304.31;4223197;28;20743;-68
2022/04/23 00:25:32;;;;;;;23.93;14.37;;;;;;;6.13;82.93;99298.59;4191162;28;20236;-68
2022/04/23 00:27:58;;;;;;;26.93;14.70;;;;;;;5.86;83.13;99292.25;4188817;28;22206;-68
2022/04/23 00:30:25;;;;;;;23.47;14.23;;;;;;;5.85;83.48;99287.13;4187888;28;20323;-67
2022/04/23 00:32:52;;;;;;;23.27;13.90;;;;;;;6.00;83.24;99296.28;4187665;28;21731;-69
2022/04/23 00:35:19;;;;;;;25.10;14.07;;;;;;;6.09;82.54;99289.31;4187689;28;20488;-70
2022/04/23 00:37:45;;;;;;;24.03;12.60;;;;;;;6.11;82.03;99288.19;4200874;28;20307;-68
2022/04/23 00:40:18;;;;;;;25.00;13.90;;;;;;;6.03;82.19;99282.78;4190452;28;21856;-67
2022/04/23 00:42:53;;;;;;;23.43;13.30;;;;;;;6.07;82.88;99286.81;4193627;28;21765;-68
2022/04/23 00:45:20;;;;;;;23.87;13.80;;;;;;;5.98;82.39;99277.13;4199451;28;20240;-68
2022/04/23 00:47:47;;;;;;;23.33;13.37;;;;;;;6.03;82.56;99276.69;4191069;28;20229;-69
2022/04/23 00:50:13;;;;;;;24.43;14.10;;;;;;;6.12;82.60;99276.66;4191950;28;20306;-69
2022/04/23 00:52:40;;;;;;;24.57;14.10;;;;;;;6.07;82.51;99270.97;4177049;28;20234;-68
2022/04/23 00:55:08;;;;;;;27.50;13.87;;;;;;;6.00;82.74;99267.25;4186370;28;22563;-69
2022/04/23 00:57:35;;;;;;;26.57;14.87;;;;;;;5.91;82.93;99266.25;4181814;28;21296;-70
2022/04/23 01:00:09;;;;;;;23.20;13.83;;;;;;;5.84;83.45;99262.53;4204961;28;20252;-69
2022/04/23 01:02:36;;;;;;;22.17;13.60;;;;;;;5.82;83.56;99255.72;4195886;28;20656;-69
2022/04/23 01:05:09;;;;;;;24.97;13.87;;;;;;;5.85;83.57;99256.28;4181762;28;20295;-68
2022/04/23 01:07:42;;;;;;;23.13;13.80;;;;;;;5.90;83.41;99254.06;4193657;28;20241;-67
2022/04/23 01:10:10;;;;;;;24.87;14.07;;;;;;;5.93;83.55;99258.22;4234145;28;21241;-69
2022/04/23 01:12:37;;;;;;;26.47;15.13;;;;;;;5.86;83.73;99252.66;4211898;28;21256;-69
2022/04/23 01:15:21;;;;;;;22.83;13.17;;;;;;;5.84;83.90;99249.34;4230258;28;20230;-68
2022/04/23 01:17:49;;;;;;;30.97;16.03;;;;;;;5.81;84.19;99249.63;4227464;28;20245;-68
2022/04/23 01:20:19;;;;;;;29.57;14.13;;;;;;;5.67;84.38;99252.72;4261843;28;20344;-69
2022/04/23 01:22:46;;;;;;;28.47;15.00;;;;;;;5.71;84.43;99249.66;4229191;28;20238;-70
2022/04/23 01:25:14;;;;;;;23.70;14.30;;;;;;;5.87;83.02;99243.75;4201249;28;21724;-67
2022/04/23 01:27:42;;;;;;;21.97;13.80;;;;;;;5.65;84.48;99244.13;4185010;28;22967;-67
2022/04/23 01:30:12;;;;;;;26.87;15.47;;;;;;;5.54;85.46;99233.72;4197003;28;20304;-68
2022/04/23 01:32:39;;;;;;;26.50;14.93;;;;;;;5.69;85.27;99232.31;4192468;28;20315;-67
2022/04/23 01:35:05;;;;;;;24.50;14.17;;;;;;;5.61;85.14;99227.72;4198924;28;21104;-68
2022/04/23 01:37:32;;;;;;;27.47;14.67;;;;;;;5.75;84.31;99226.44;4188617;28;20353;-69
2022/04/23 01:39:59;;;;;;;24.67;14.20;;;;;;;5.68;84.51;99228.81;4198215;28;20363;-68
2022/04/23 01:42:25;;;;;;;25.77;14.93;;;;;;;5.77;84.13;99224.50;4195757;28;20267;-68
2022/04/23 01:44:52;;;;;;;22.73;14.53;;;;;;;5.64;84.16;99218.69;4188403;28;22911;-66
2022/04/23 01:47:19;;;;;;;25.57;14.77;;;;;;;5.65;84.88;99212.44;4189369;28;21749;-71
2022/04/23 01:49:46;;;;;;;24.77;15.10;;;;;;;5.67;85.51;99207.88;4186661;28;20244;-68
2022/04/23 01:52:13;;;;;;;26.33;14.20;;;;;;;5.58;84.66;99206.91;4190202;28;20378;-67
2022/04/23 01:54:40;;;;;;;24.80;14.40;;;;;;;5.64;84.85;99208.97;4203655;28;20304;-68
2022/04/23 01:57:06;;;;;;;22.77;14.53;;;;;;;5.64;84.94;99200.22;4176525;28;20276;-70
2022/04/23 01:59:33;;;;;;;25.73;14.67;;;;;;;5.63;85.81;99203.84;4201954;28;20304;-67
2022/04/23 02:02:00;;;;;;;22.97;13.63;;;;;;;5.71;85.18;99207.44;4187377;28;20337;-68
2022/04/23 02:04:26;;;;;;;29.27;15.70;;;;;;;5.70;85.28;99197.84;4184132;28;20976;-70
2022/04/23 02:06:53;;;;;;;25.23;14.27;;;;;;;5.70;85.56;99197.84;4185473;28;20232;-69
2022/04/23 02:09:20;;;;;;;23.97;14.97;;;;;;;5.74;85.42;99200.22;4175787;28;20230;-68
2022/04/23 02:11:47;;;;;;;22.50;14.37;;;;;;;5.68;85.34;99206.88;4194569;28;21817;-68
2022/04/23 02:14:13;;;;;;;26.00;15.10;;;;;;;5.77;85.37;99203.38;4199906;28;20241;-68
2022/04/23 02:16:40;;;;;;;24.57;14.73;;;;;;;5.88;84.59;99197.09;4186742;28;20308;-67
2022/04/23 02:19:06;;;;;;;24.53;15.60;;;;;;;5.83;84.88;99192.25;4187417;28;25179;-67
2022/04/23 02:21:33;;;;;;;26.27;14.87;;;;;;;5.89;84.80;99191.66;4204729;28;22617;-68
2022/04/23 02:24:03;;;;;;;26.37;14.57;;;;;;;5.97;84.11;99190.13;4198863;28;20232;-67
2022/04/23 02:26:30;;;;;;;29.50;16.33;;;;;;;5.89;84.80;99178.44;4178225;28;20463;-69
2022/04/23 02:28:57;;;;;;;27.40;16.50;;;;;;;5.82;85.02;99185.28;4200714;28;20342;-68
2022/04/23 02:31:23;;;;;;;24.37;15.40;;;;;;;5.80;84.77;99189.88;4190904;28;20236;-68
2022/04/23 02:33:50;;;;;;;24.80;15.30;;;;;;;5.85;84.10;99186.81;4188300;28;20291;-68
2022/04/23 02:36:17;;;;;;;25.73;14.47;;;;;;;5.80;84.70;99189.88;4202098;28;20670;-69
2022/04/23 02:38:43;;;;;;;27.03;15.70;;;;;;;5.62;85.45;99191.59;4184369;28;20361;-68
2022/04/23 02:41:10;;;;;;;25.07;15.20;;;;;;;5.63;85.71;99185.38;4189185;28;20244;-67
2022/04/23 02:43:41;;;;;;;23.00;14.67;;;;;;;5.68;85.69;99196.31;4191643;28;20238;-68
2022/04/23 02:46:08;;;;;;;32.43;15.30;;;;;;;5.65;85.11;99192.16;4194982;28;20244;-69
2022/04/23 02:48:35;;;;;;;29.50;15.07;;;;;;;5.66;85.45;99195.63;4199367;28;22072;-69
2022/04/23 02:51:02;;;;;;;28.70;15.40;;;;;;;5.65;85.79;99196.63;4184110;28;20229;-70
2022/04/23 02:53:28;;;;;;;28.20;15.70;;;;;;;5.37;85.92;99193.91;4203703;28;20235;-69
2022/04/23 02:55:56;;;;;;;30.60;16.20;;;;;;;5.19;87.64;99200.88;4207368;28;20262;-67
2022/04/23 02:58:27;;;;;;;25.93;16.07;;;;;;;5.28;87.59;99190.31;4187018;28;20231;-68
2022/04/23 03:00:54;;;;;;;30.07;16.03;;;;;;;5.25;86.78;99192.41;4185274;28;20239;-69
2022/04/23 03:03:22;;;;;;;26.67;15.93;;;;;;;5.16;88.17;99191.44;4191458;28;20386;-68
2022/04/23 03:05:51;;;;;;;28.00;16.27;;;;;;;5.22;88.33;99187.41;4185586;28;22866;-67
2022/04/23 03:08:19;;;;;;;26.67;15.53;;;;;;;5.37;87.83;99188.63;4189234;28;22655;-68
2022/04/23 03:10:45;;;;;;;26.90;15.83;;;;;;;5.47;87.42;99193.88;4189663;28;21526;-69
2022/04/23 03:13:12;;;;;;;29.00;16.30;;;;;;;5.35;86.69;99184.47;4182631;28;20236;-69
2022/04/23 03:15:39;;;;;;;30.17;16.17;;;;;;;5.24;87.35;99188.09;4205527;28;21341;-67
2022/04/23 03:18:09;;;;;;;31.93;16.43;;;;;;;5.24;88.72;99194.22;4191683;28;20404;-67
2022/04/23 03:20:37;;;;;;;28.20;16.97;;;;;;;5.08;88.73;99200.06;4182009;28;20241;-68
2022/04/23 03:23:04;;;;;;;25.67;15.57;;;;;;;5.25;89.20;99195.06;4196032;28;20291;-68
2022/04/23 03:25:33;;;;;;;31.07;16.93;;;;;;;5.29;88.53;99201.69;4203121;28;21722;-69
2022/04/23 03:28:00;;;;;;;30.03;18.37;;;;;;;5.34;87.92;99191.56;4194011;28;20730;-69
2022/04/23 03:30:27;;;;;;;26.63;16.73;;;;;;;5.38;87.93;99185.00;4190693;28;21767;-69
2022/04/23 03:32:54;;;;;;;29.13;18.00;;;;;;;5.35;88.17;99184.47;4181901;28;20233;-69
2022/04/23 03:35:21;;;;;;;33.17;17.77;;;;;;;5.32;87.86;99188.22;4201335;28;20740;-68
2022/04/23 03:37:48;;;;;;;29.53;17.97;;;;;;;5.37;88.31;99193.91;4190193;28;20236;-69
2022/04/23 03:40:22;;;;;;;26.03;15.40;;;;;;;5.57;87.69;99199.13;4191962;28;20241;-71
2022/04/23 03:42:48;;;;;;;27.80;16.70;;;;;;;5.47;87.89;99201.78;4189320;28;22739;-69
2022/04/23 03:45:18;;;;;;;27.53;16.37;;;;;;;5.56;87.06;99208.03;4184865;28;21066;-68
2022/04/23 03:47:47;;;;;;;27.50;15.93;;;;;;;5.62;87.23;99208.28;4188047;28;20241;-67
2022/04/23 03:50:14;;;;;;;28.93;16.67;;;;;;;5.47;87.43;99210.53;4191082;28;20316;-68
2022/04/23 03:52:41;;;;;;;27.30;16.30;;;;;;;5.48;87.68;99203.47;4204080;28;21187;-67
2022/04/23 03:55:07;;;;;;;26.13;15.67;;;;;;;5.52;87.28;99207.47;4200572;28;20737;-67
2022/04/23 03:57:51;;;;;;;30.40;16.70;;;;;;;5.41;87.94;99202.38;4207927;28;20319;-68
2022/04/23 04:00:20;;;;;;;26.43;15.67;;;;;;;5.23;89.09;99200.47;4232953;28;20265;-69
2022/04/23 04:02:47;;;;;;;27.33;16.37;;;;;;;5.44;88.48;99205.56;4241297;28;20240;-69
2022/04/23 04:05:15;;;;;;;28.53;16.63;;;;;;;5.38;89.03;99200.84;4197600;28;20305;-67
2022/04/23 04:07:46;;;;;;;28.30;16.20;;;;;;;5.41;89.50;99200.56;4240712;28;20225;-67
2022/04/23 04:10:18;;;;;;;26.83;15.70;;;;;;;5.54;88.48;99204.69;4219134;28;21570;-67
2022/04/23 04:12:45;;;;;;;26.23;15.97;;;;;;;5.57;88.05;99199.13;4181498;28;22067;-67
2022/04/23 04:15:15;;;;;;;27.97;16.50;;;;;;;5.49;88.38;99198.03;4192513;28;20230;-67
2022/04/23 04:17:46;;;;;;;25.93;16.03;;;;;;;5.64;88.49;99198.44;4206260;28;22606;-68
2022/04/23 04:20:14;;;;;;;29.27;16.70;;;;;;;5.72;87.33;99200.34;4181328;28;20238;-69
2022/04/23 04:22:42;;;;;;;23.00;15.80;;;;;;;5.80;87.28;99192.50;4202345;28;20446;-69
2022/04/23 04:25:09;;;;;;;29.97;16.13;;;;;;;5.69;87.04;99193.53;4191020;28;20268;-67
2022/04/23 04:27:37;;;;;;;25.63;15.60;;;;;;;5.75;86.86;99194.75;4179876;28;20240;-68
2022/04/23 04:30:06;;;;;;;28.00;16.10;;;;;;;5.74;86.87;99201.03;4197049;28;20237;-67
2022/04/23 04:32:32;;;;;;;28.10;16.03;;;;;;;5.75;87.08;99202.69;4187082;28;20271;-67
2022/04/23 04:34:59;;;;;;;26.87;15.53;;;;;;;5.72;86.28;99195.88;4217118;28;22584;-68
2022/04/23 04:37:27;;;;;;;27.30;15.90;;;;;;;5.64;87.13;99194.94;4187864;28;20267;-67
2022/04/23 04:39:54;;;;;;;26.70;15.77;;;;;;;5.75;86.30;99194.75;4211326;28;20330;-68
2022/04/23 04:42:21;;;;;;;29.47;17.07;;;;;;;5.89;86.31;99196.91;4187864;28;21185;-67
2022/04/23 04:44:49;;;;;;;25.73;16.13;;;;;;;6.02;86.07;99195.81;4182495;28;20247;-67
2022/04/23 04:47:16;;;;;;;25.00;15.43;;;;;;;6.03;85.79;99205.38;4195168;28;20225;-68
2022/04/23 04:49:43;;;;;;;26.30;15.70;;;;;;;5.83;85.93;99196.66;4186976;28;20240;-68
2022/04/23 04:52:10;;;;;;;25.13;15.60;;;;;;;5.74;86.08;99200.22;4189041;28;20233;-67
2022/04/23 04:54:36;;;;;;;28.40;14.97;;;;;;;5.81;85.59;99196.84;4168443;28;20221;-65
2022/04/23 04:57:04;;;;;;;27.23;16.93;;;;;;;5.89;85.12;99202.19;4202392;28;20239;-67
2022/04/23 04:59:34;;;;;;;26.87;15.37;;;;;;;5.89;85.64;99204.84;4177833;28;20359;-67
2022/04/23 05:02:01;;;;;;;25.03;14.20;;;;;;;6.09;85.17;99207.44;4180131;28;23455;-66
2022/04/23 05:04:28;;;;;;;23.93;14.43;;;;;;;6.21;84.53;99216.00;4179146;28;21243;-67
2022/04/23 05:06:57;;;;;;;24.33;14.63;;;;;;;6.29;84.05;99201.06;4187764;28;21404;-67
2022/04/23 05:09:24;;;;;;;26.60;14.73;;;;;;;6.22;84.60;99202.63;4177461;28;21853;-66
2022/04/23 05:11:51;;;;;;;26.47;15.87;;;;;;;6.18;84.38;99203.94;4196276;28;20410;-69
2022/04/23 05:14:18;;;;;;;27.20;16.60;;;;;;;6.31;83.57;99204.41;4182646;28;20271;-67
2022/04/23 05:16:44;;;;;;;25.47;15.00;;;;;;;6.47;83.52;99208.22;4167190;28;20391;-66
2022/04/23 05:19:11;;;;;;;25.50;15.13;;;;;;;6.67;83.08;99212.38;4184780;28;20415;-71
2022/04/23 05:21:38;;;;;;;24.77;15.07;;;;;;;6.81;82.27;99216.28;4198643;28;20234;-68
2022/04/23 05:24:06;;;;;;;26.83;14.63;;;;;;;6.80;81.79;99209.34;4205021;28;20238;-68
2022/04/23 05:26:34;;;;;;;21.47;13.73;;;;;;;6.91;81.71;99208.31;4178770;28;21345;-70
2022/04/23 05:29:01;;;;;;;24.23;14.43;;;;;;;7.02;81.78;99213.34;4196177;28;20240;-71
2022/04/23 05:31:27;;;;;;;22.03;14.57;;;;;;;7.22;80.61;99213.19;4179828;28;20299;-70
2022/04/23 05:33:54;;;;;;;24.03;14.10;;;;;;;6.97;81.77;99215.63;4179036;28;21989;-66
2022/04/23 05:36:23;;;;;;;22.17;13.77;;;;;;;6.94;82.19;99221.22;4196242;28;20240;-72
2022/04/23 05:38:49;;;;;;;23.93;15.10;;;;;;;6.76;82.92;99216.75;4178487;28;20476;-68
2022/04/23 05:41:16;;;;;;;22.30;13.97;;;;;;;6.90;82.48;99218.03;4171983;28;20821;-68
2022/04/23 05:43:43;;;;;;;22.90;13.60;;;;;;;7.10;82.04;99224.00;4173366;28;20321;-68
2022/04/23 05:46:09;;;;;;;25.80;15.70;;;;;;;7.32;81.38;99219.22;4176950;28;21579;-67
2022/04/23 05:48:40;;;;;;;25.13;14.77;;;;;;;7.44;80.47;99212.69;4181499;28;20242;-71
2022/04/23 05:51:07;;;;;;;24.43;14.17;;;;;;;7.58;80.08;99216.56;4175384;28;20323;-70
2022/04/23 05:53:34;;;;;;;30.67;13.27;;;;;;;7.68;79.69;99214.66;4178648;28;20252;-69
2022/04/23 05:56:00;;;;;;;30.67;14.17;;;;;;;7.79;79.43;99221.50;4177045;28;20256;-68
2022/04/23 05:58:26;;;;;;;25.40;12.23;;;;;;;8.08;78.54;99220.31;4175182;28;20271;-71
2022/04/23 06:00:54;;;;;;;23.13;12.70;;;;;;;8.25;77.89;99224.72;4168009;28;20652;-70
2022/04/23 06:03:21;;;;;;;22.53;11.33;;;;;;;8.58;76.08;99223.00;4176846;28;20232;-70
2022/04/23 06:05:47;;;;;;;23.37;11.80;;;;;;;8.38;75.86;99224.25;4182880;28;20356;-67
2022/04/23 06:08:14;;;;;;;21.43;11.77;;;;;;;8.62;74.88;99228.84;4189428;28;20334;-68
2022/04/23 06:10:40;;;;;;;16.03;10.40;;;;;;;8.91;74.19;99220.41;4197459;28;20268;-71
2022/04/23 06:13:08;;;;;;;19.80;10.33;;;;;;;9.02;73.50;99216.63;4183201;28;20444;-69
2022/04/23 06:15:35;;;;;;;14.90;9.17;;;;;;;9.21;73.09;99218.13;4215563;28;20221;-76
2022/04/23 06:18:02;;;;;;;15.47;8.80;;;;;;;9.06;71.40;99216.13;4188057;28;20242;-68
2022/04/23 06:20:28;;;;;;;11.60;7.60;;;;;;;8.84;72.99;99220.25;4184607;28;20276;-68
2022/04/23 06:22:58;;;;;;;16.93;7.67;;;;;;;9.01;72.15;99217.59;4206325;28;21094;-67
2022/04/23 06:25:24;;;;;;;11.10;8.10;;;;;;;9.08;71.75;99216.81;4194617;28;20242;-67
2022/04/23 06:27:51;;;;;;;18.63;9.47;;;;;;;8.95;72.86;99212.97;4221734;28;20325;-67
2022/04/23 06:30:17;;;;;;;22.93;12.77;;;;;;;9.17;73.51;99212.31;4220454;28;20410;-67
2022/04/23 06:32:44;;;;;;;16.63;9.80;;;;;;;9.71;71.53;99209.91;4243484;28;21282;-69
2022/04/23 06:35:11;;;;;;;13.60;8.30;;;;;;;10.17;67.33;99213.78;4222745;28;20284;-69
2022/04/23 06:37:41;;;;;;;13.13;7.30;;;;;;;9.56;68.77;99205.47;4192487;28;20230;-68
2022/04/23 06:40:11;;;;;;;13.87;8.03;;;;;;;9.77;68.25;99211.06;4179054;28;20309;-67
2022/04/23 06:42:38;;;;;;;16.27;8.27;;;;;;;9.53;69.67;99206.66;4206439;28;22003;-69
2022/04/23 06:45:05;;;;;;;13.77;7.70;;;;;;;9.82;69.29;99216.69;4219338;28;20439;-68
2022/04/23 06:47:32;;;;;;;14.30;8.07;;;;;;;9.65;68.96;99215.91;4226659;28;20619;-68
2022/04/23 06:49:59;;;;;;;14.43;7.73;;;;;;;9.57;69.65;99207.94;4213813;28;22701;-66
2022/04/23 06:52:26;;;;;;;14.23;6.87;;;;;;;9.84;68.30;99220.03;4183835;28;21632;-68
2022/04/23 06:54:54;;;;;;;18.90;8.87;;;;;;;9.71;69.35;99215.22;4219177;28;24954;-68
2022/04/23 06:57:24;;;;;;;13.67;7.93;;;;;;;9.57;69.70;99213.25;4263497;28;20221;-67
2022/04/23 06:59:52;;;;;;;17.37;8.67;;;;;;;9.45;69.31;99211.97;4207724;28;20314;-70
2022/04/23 07:02:19;;;;;;;16.73;7.97;;;;;;;9.41;69.15;99216.78;4221417;28;20287;-67
2022/04/23 07:04:47;;;;;;;16.03;8.07;;;;;;;10.06;67.20;99215.78;4293346;28;20244;-68
2022/04/23 07:07:16;;;;;;;16.90;7.50;;;;;;;10.15;67.25;99205.97;4263649;28;20235;-68
2022/04/23 07:09:43;;;;;;;15.37;8.60;;;;;;;10.38;67.26;99211.38;4197422;28;20226;-68
2022/04/23 07:12:10;;;;;;;16.47;8.17;;;;;;;9.34;71.00;99207.84;4257734;28;20432;-69
2022/04/23 07:14:38;;;;;;;12.33;7.50;;;;;;;9.25;70.73;99212.31;4198128;28;21204;-72
2022/04/23 07:17:06;;;;;;;14.87;6.10;;;;;;;9.59;69.56;99205.13;4235470;28;20409;-70
2022/04/23 07:19:37;;;;;;;10.70;5.70;;;;;;;9.63;67.59;99212.59;4216644;28;22054;-71
2022/04/23 07:22:05;;;;;;;14.00;6.87;;;;;;;9.82;67.78;99205.25;4222507;28;20633;-72
2022/04/23 07:24:31;;;;;;;10.17;5.53;;;;;;;9.77;67.63;99203.09;4214184;28;20237;-70
2022/04/23 07:26:59;;;;;;;5.97;4.53;;;;;;;9.86;67.46;99207.41;4190141;28;20239;-70
2022/04/23 07:29:25;;;;;;;10.60;6.57;;;;;;;9.89;67.39;99200.91;4216847;28;20320;-70
2022/04/23 07:31:52;;;;;;;7.27;4.93;;;;;;;9.99;66.48;99200.72;4187930;28;20606;-69
2022/04/23 07:39:50;;;;;;;6.17;4.27;;;;;;;9.94;66.13;99194.06;4209043;28;21872;-71
2022/04/23 07:42:17;;;;;;;5.43;4.10;;;;;;;10.00;66.66;99199.72;4191059;28;20304;-72
2022/04/23 07:44:43;;;;;;;5.63;4.07;;;;;;;9.96;66.16;99193.91;4195766;28;20296;-67
2022/04/23 07:47:16;;;;;;;5.87;4.20;;;;;;;9.87;66.54;99186.97;4204310;28;20259;-69
2022/04/23 07:49:43;;;;;;;7.77;4.47;;;;;;;9.66;68.28;99191.00;4182681;28;21928;-68
2022/04/23 07:52:10;;;;;;;9.67;5.20;;;;;;;9.65;68.82;99192.00;4203120;28;20240;-70
2022/04/23 07:54:38;;;;;;;7.77;5.13;;;;;;;9.65;68.88;99189.34;4215634;28;20235;-70
2022/04/23 07:57:08;;;;;;;8.90;5.30;;;;;;;9.62;69.60;99184.41;4233116;28;20279;-70
2022/04/23 07:59:40;;;;;;;7.33;5.37;;;;;;;9.37;69.99;99185.44;4195259;28;20331;-70
2022/04/23 08:02:07;;;;;;;13.97;5.80;;;;;;;9.53;69.75;99190.72;4208992;28;20236;-69
2022/04/23 08:04:34;;;;;;;10.13;6.37;;;;;;;9.36;70.13;99183.75;4210250;28;20250;-70
2022/04/23 08:07:01;;;;;;;8.77;6.20;;;;;;;9.15;72.45;99184.28;4204443;28;20373;-69
2022/04/23 08:09:27;;;;;;;10.23;6.63;;;;;;;8.98;74.46;99183.44;4187995;28;20716;-69
2022/04/23 08:11:55;;;;;;;8.77;5.83;;;;;;;8.85;75.39;99184.78;4210070;28;20236;-60
2022/04/23 08:14:22;;;;;;;9.03;6.40;;;;;;;9.00;74.37;99184.13;4233216;28;20333;-67
2022/04/23 08:16:50;;;;;;;11.07;5.93;;;;;;;9.00;74.51;99186.78;4201058;28;20252;-68
2022/04/23 08:19:17;;;;;;;11.67;6.03;;;;;;;8.88;75.19;99192.41;4218379;28;20287;-67
2022/04/23 08:21:44;;;;;;;11.17;6.67;;;;;;;8.77;76.07;99192.72;4192928;28;21135;-65
2022/04/23 08:24:10;;;;;;;9.63;6.53;;;;;;;8.67;77.12;99186.75;4232820;28;21683;-65
2022/04/23 08:26:37;;;;;;;11.13;7.27;;;;;;;8.91;76.50;99185.09;4218223;28;21377;-66
2022/04/23 08:31:49;;;;;;;10.40;7.23;;;;;;;9.08;74.43;99189.41;4198728;28;20224;-66
2022/04/23 08:34:15;;;;;;;11.07;7.00;;;;;;;9.20;74.34;99185.44;4204002;28;20240;-66
2022/04/23 08:36:43;;;;;;;9.47;6.87;;;;;;;9.04;74.09;99185.44;4187326;28;20315;-66
2022/04/23 08:39:09;;;;;;;11.80;7.00;;;;;;;9.19;74.26;99182.94;4223033;28;20244;-66
2022/04/23 08:41:36;;;;;;;10.60;7.00;;;;;;;9.43;72.68;99185.56;4203575;28;20236;-66
2022/04/23 08:44:07;;;;;;;10.13;7.00;;;;;;;9.45;71.95;99180.09;4193897;28;20340;-64
2022/04/23 08:46:35;;;;;;;12.03;6.97;;;;;;;9.34;72.25;99173.31;4192454;28;20231;-66
2022/04/23 08:49:16;;;;;;;8.50;6.20;;;;;;;9.36;72.16;99178.44;4193732;28;21824;-64
2022/04/23 08:51:53;;;;;;;9.67;5.67;;;;;;;9.31;72.12;99170.97;4197925;28;20268;-68
2022/04/23 08:54:23;;;;;;;9.63;6.03;;;;;;;9.19;72.69;99180.28;4200013;28;21291;-64
2022/04/23 08:56:50;;;;;;;10.10;6.63;;;;;;;9.22;73.70;99170.16;4194438;28;22448;-67
2022/04/23 08:59:17;;;;;;;9.97;5.80;;;;;;;9.27;73.24;99164.34;4202127;28;20236;-65
2022/04/23 09:01:49;;;;;;;10.00;6.10;;;;;;;9.17;72.56;99171.66;4202568;28;22498;-68
2022/04/23 09:04:16;;;;;;;7.77;5.57;;;;;;;9.14;73.90;99174.66;4207813;28;20352;-66
2022/04/23 09:06:45;;;;;;;8.13;5.53;;;;;;;9.20;73.25;99160.72;4192818;28;20228;-68
2022/04/23 09:09:22;;;;;;;8.60;6.10;;;;;;;9.17;73.84;99156.56;4214307;28;21615;-68
2022/04/23 09:11:57;;;;;;;8.17;5.47;;;;;;;9.14;73.67;99167.53;4204638;28;20234;-66
2022/04/23 09:14:26;;;;;;;7.17;5.40;;;;;;;9.00;73.93;99170.84;4195194;28;20301;-67
2022/04/23 09:25:35;;;;;;;10.23;5.47;;;;;;;9.63;72.04;99158.66;4233140;28;20225;-65
2022/04/23 09:28:21;;;;;;;8.33;5.00;;;;;;;10.31;70.52;99167.88;4195127;28;20336;-67
2022/04/23 09:30:52;;;;;;;9.07;4.77;;;;;;;10.90;68.40;99168.13;4214284;28;21517;-66
2022/04/23 09:33:21;;;;;;;6.57;4.27;;;;;;;11.46;65.39;99161.66;4208217;28;20284;-68
2022/04/23 09:35:56;;;;;;;10.60;5.00;;;;;;;11.70;64.71;99161.41;4204944;28;20235;-60
2022/04/23 09:38:24;;;;;;;7.77;5.00;;;;;;;11.98;64.15;99166.09;4243376;28;21205;-66
2022/04/23 09:40:55;;;;;;;7.20;4.57;;;;;;;12.00;60.29;99169.41;4224532;28;20278;-69
2022/04/23 09:43:28;;;;;;;7.70;4.40;;;;;;;11.60;62.52;99166.19;4214743;28;21906;-68
2022/04/23 09:46:08;;;;;;;6.13;4.23;;;;;;;11.22;62.54;99163.56;4196914;28;20235;-69
2022/04/23 09:48:44;;;;;;;7.67;4.63;;;;;;;11.35;61.81;99155.75;4203549;28;25709;-68
2022/04/23 09:51:25;;;;;;;8.07;4.40;;;;;;;11.22;62.65;99158.22;4213935;28;20271;-67
2022/04/23 09:53:54;;;;;;;7.53;4.17;;;;;;;11.07;62.93;99152.03;4214751;28;21367;-69
2022/04/23 09:56:26;;;;;;;8.30;4.57;;;;;;;11.19;62.19;99153.25;4196880;28;20237;-69
2022/04/23 09:58:54;;;;;;;6.03;4.37;;;;;;;11.27;62.73;99155.84;4224063;28;23305;-69
2022/04/23 10:01:24;;;;;;;5.47;3.80;;;;;;;11.31;61.66;99151.81;4215873;28;20231;-68
2022/04/23 10:03:52;;;;;;;5.57;3.93;;;;;;;11.21;61.45;99153.91;4187040;28;21227;-68
2022/04/23 10:06:20;;;;;;;5.93;4.10;;;;;;;11.02;61.26;99157.06;4213129;28;21270;-68
2022/04/23 10:08:57;;;;;;;7.63;5.00;;;;;;;10.99;62.53;99151.09;4229924;28;22945;-67
2022/04/23 10:11:29;;;;;;;8.33;4.40;;;;;;;11.07;62.67;99154.69;4266074;28;20339;-69
2022/04/23 10:14:03;;;;;;;5.60;4.20;;;;;;;11.06;62.25;99163.69;4197448;28;22867;-70
2022/04/23 10:16:31;;;;;;;7.80;5.03;;;;;;;10.92;62.98;99160.81;4203317;28;20914;-67
2022/04/23 10:18:58;;;;;;;7.57;5.10;;;;;;;10.53;64.90;99156.41;4193200;28;22085;-67
2022/04/23 10:21:59;;;;;;;7.27;4.83;;;;;;;10.40;65.48;99160.69;4201399;28;21258;-66
2022/04/23 10:24:49;;;;;;;7.07;5.13;;;;;;;10.66;64.79;99155.03;4209132;28;20229;-67
2022/04/23 10:27:17;;;;;;;7.10;5.33;;;;;;;10.69;64.63;99162.66;4200336;28;22400;-67
2022/04/23 10:29:43;;;;;;;8.30;5.60;;;;;;;10.65;64.82;99153.34;4214611;28;22391;-67
2022/04/23 10:32:10;;;;;;;10.03;5.60;;;;;;;10.60;65.13;99161.03;4220929;28;20966;-68
2022/04/23 10:34:38;;;;;;;10.77;5.83;;;;;;;10.52;65.16;99154.78;4206938;28;20340;-67
2022/04/23 10:37:25;;;;;;;8.10;5.73;;;;;;;10.26;66.52;99157.72;4212693;28;21702;-66
2022/04/23 10:39:52;;;;;;;9.70;6.07;;;;;;;10.22;66.45;99152.94;4192646;28;20273;-68
2022/04/23 10:42:19;;;;;;;8.00;5.07;;;;;;;9.91;68.12;99156.41;4197255;28;20238;-68
2022/04/23 10:44:46;;;;;;;8.47;5.83;;;;;;;10.12;67.76;99147.84;4187161;28;20662;-67
2022/04/23 10:47:32;;;;;;;9.23;6.07;;;;;;;10.34;67.06;99148.91;4190402;28;20393;-68
2022/04/23 10:52:41;;;;;;;8.80;5.27;;;;;;;10.32;65.94;99158.88;4220521;28;20240;-67
2022/04/23 10:55:10;;;;;;;6.63;4.93;;;;;;;10.28;67.28;99157.56;4205584;28;20299;-67
2022/04/23 10:57:40;;;;;;;7.90;5.23;;;;;;;10.17;67.81;99157.94;4194414;28;20237;-69
2022/04/23 11:00:10;;;;;;;10.03;6.23;;;;;;;10.18;67.51;99160.41;4207319;28;22788;-69
2022/04/23 11:02:39;;;;;;;8.23;5.40;;;;;;;10.15;67.89;99164.25;4191428;28;20302;-68
2022/04/23 11:13:48;;;;;;;8.23;5.33;;;;;;;10.39;67.93;99161.66;4222624;28;21451;-68
2022/04/23 11:16:17;;;;;;;8.53;5.07;;;;;;;10.39;66.64;99165.16;4208363;28;20240;-66
2022/04/23 11:18:45;;;;;;;8.47;5.07;;;;;;;10.46;67.25;99163.44;4195145;28;20234;-66
2022/04/23 11:21:23;;;;;;;7.30;4.47;;;;;;;10.40;65.74;99161.50;4202925;28;20241;-67
2022/04/23 11:23:51;;;;;;;7.80;4.93;;;;;;;10.25;65.96;99163.22;4190521;28;21183;-69
2022/04/23 11:26:22;;;;;;;9.17;5.37;;;;;;;10.29;66.63;99161.91;4188151;28;21224;-69
2022/04/23 11:28:57;;;;;;;7.20;5.23;;;;;;;10.00;67.45;99158.03;4200820;28;20249;-69
2022/04/23 11:31:25;;;;;;;7.93;5.20;;;;;;;10.12;68.61;99159.28;4202909;28;24545;-67
2022/04/23 11:33:58;;;;;;;7.00;5.03;;;;;;;10.13;68.89;99160.94;4193185;28;21220;-66
2022/04/23 11:36:29;;;;;;;7.97;5.33;;;;;;;10.30;68.05;99160.88;4197426;28;20236;-68
2022/04/23 11:38:58;;;;;;;8.10;5.47;;;;;;;10.30;68.12;99156.41;4199050;28;20236;-70
2022/04/23 11:41:36;;;;;;;8.23;5.10;;;;;;;10.27;67.39;99153.22;4203795;28;20232;-72
2022/04/23 11:44:15;;;;;;;8.20;5.40;;;;;;;10.22;67.88;99148.44;4197750;28;20335;-68
2022/04/23 11:46:48;;;;;;;7.00;4.90;;;;;;;9.92;67.55;99148.22;4220401;28;21284;-72
2022/04/23 11:49:31;;;;;;;7.80;5.07;;;;;;;9.93;68.43;99141.13;4224756;28;20227;-69
2022/04/23 11:52:05;;;;;;;8.97;5.87;;;;;;;10.15;68.10;99142.16;4180550;28;21293;-69
2022/04/23 11:54:36;;;;;;;8.23;5.60;;;;;;;10.05;68.25;99137.06;4187991;28;22978;-70
2022/04/23 11:57:08;;;;;;;8.37;4.17;;;;;;;10.31;67.46;99141.28;4241457;28;20230;-69
2022/04/23 11:59:36;;;;;;;9.03;5.20;;;;;;;10.53;66.35;99139.63;4197204;28;20267;-68
2022/04/23 12:02:23;;;;;;;7.30;3.90;;;;;;;10.69;64.51;99144.84;4209965;28;20227;-70
2022/04/23 12:04:54;;;;;;;5.40;3.50;;;;;;;10.88;65.14;99137.38;4244522;28;20263;-69